Terminal Aerodrome Forecast
Issued by NWS Tuscon, AZ

Home | Current Version | Previous Version | Text Only | Print | Product List | Glossary On
Versions: 1 2 3 4 5 6 7 8 9 10 11 12 13
443
FTUS45 KTWC 231720
TAFDUG
TAF
KDUG 231720Z 2318/2418 27018G28KT P6SM VCSH SCT030 BKN060
     FM240200 32013G22KT P6SM FEW070
     FM240500 35007KT P6SM SKC=

USA.gov is the U.S. government's official web portal to all federal, state and local government web resources and services.